Time;durP1;ratioP1;P1;durP2;ratioP2;P2;SDS_P1;SDS_P2;PMS_P1;PMS_P2;Temp;Humidity;BMP_temperature;BMP_pressure;BME280_temperature;BME280_humidity;BME280_pressure;Samples;Min_cycle;Max_cycle;Signal;HPM_P1;HPM_P2
2023/01/09 00:01:26;;;;;;;8.85;1.90;;;;;;;6.06;100.00;99181.25;4999300;28;20076;-63
2023/01/09 00:03:52;;;;;;;6.03;1.50;;;;;;;5.98;100.00;99180.69;5034000;28;20041;-66
2023/01/09 00:06:17;;;;;;;7.43;1.55;;;;;;;6.02;100.00;99194.47;5033697;28;20030;-65
2023/01/09 00:08:43;;;;;;;5.22;1.50;;;;;;;5.93;100.00;99185.25;5034216;28;20072;-65
2023/01/09 00:11:08;;;;;;;5.70;1.48;;;;;;;5.89;100.00;99180.22;5033823;28;20231;-66
2023/01/09 00:13:34;;;;;;;5.15;1.60;;;;;;;5.96;100.00;99189.50;4999805;28;20048;-65
2023/01/09 00:15:59;;;;;;;6.68;1.60;;;;;;;5.85;100.00;99176.88;5033808;28;20034;-64
2023/01/09 00:18:25;;;;;;;5.90;1.50;;;;;;;5.94;100.00;99189.56;5033623;28;20025;-65
2023/01/09 00:20:50;;;;;;;7.95;1.70;;;;;;;5.85;100.00;99184.72;5015770;28;20064;-65
2023/01/09 00:23:16;;;;;;;7.85;1.67;;;;;;;5.83;100.00;99190.88;5033537;28;20030;-66
2023/01/09 00:25:41;;;;;;;10.75;1.90;;;;;;;5.79;100.00;99187.53;5033618;28;20076;-66
2023/01/09 00:28:06;;;;;;;8.70;2.08;;;;;;;5.42;100.00;99141.13;5015902;28;20041;-65
2023/01/09 00:30:32;;;;;;;6.95;1.75;;;;;;;5.78;100.00;99183.22;5033323;28;20052;-66
2023/01/09 00:32:57;;;;;;;5.43;1.67;;;;;;;5.81;100.00;99185.69;5033179;28;20037;-66
2023/01/09 00:35:24;;;;;;;4.70;1.50;;;;;;;5.77;100.00;99168.47;5033235;28;20052;-65
2023/01/09 00:37:50;;;;;;;6.95;1.88;;;;;;;5.77;100.00;99172.84;5033681;28;20038;-63
2023/01/09 00:40:17;;;;;;;5.63;1.38;;;;;;;5.60;100.00;99144.78;5011428;28;20346;-65
2023/01/09 00:42:44;;;;;;;4.97;1.58;;;;;;;5.76;100.00;99160.69;5015095;28;20037;-65
2023/01/09 00:45:19;;;;;;;3.92;1.67;;;;;;;5.53;100.00;99144.19;4998515;28;20159;-66
2023/01/09 00:47:49;;;;;;;8.15;1.92;;;;;;;5.58;100.00;99165.72;5032743;28;20025;-65
2023/01/09 00:50:21;;;;;;;6.77;1.60;;;;;;;5.13;100.00;99075.31;5014867;28;20389;-65
2023/01/09 00:52:47;;;;;;;5.05;1.70;;;;;;;5.47;100.00;99144.41;5014927;28;20763;-66
2023/01/09 00:55:13;;;;;;;6.13;1.75;;;;;;;5.60;100.00;99155.22;5033199;28;20041;-65
2023/01/09 00:57:38;;;;;;;9.48;1.60;;;;;;;5.58;100.00;99167.47;4998446;28;20108;-65
2023/01/09 01:00:05;;;;;;;4.80;2.00;;;;;;;5.54;100.00;99163.31;5014776;28;20156;-65
2023/01/09 01:02:30;;;;;;;5.18;1.45;;;;;;;5.53;100.00;99165.06;5032451;28;20026;-64
2023/01/09 01:07:40;;;;;;;4.90;1.77;;;;;;;5.18;100.00;99126.41;5003813;28;20408;-65
2023/01/09 01:10:16;;;;;;;10.48;2.28;;;;;;;5.45;100.00;99166.25;5032460;28;20041;-66
2023/01/09 01:12:42;;;;;;;7.50;1.88;;;;;;;5.46;100.00;99158.34;5014710;28;20056;-66
2023/01/09 01:15:08;;;;;;;5.25;1.73;;;;;;;5.09;100.00;99098.06;4998394;28;20366;-66
2023/01/09 01:17:35;;;;;;;6.70;2.00;;;;;;;5.60;100.00;99178.72;5014979;28;20033;-66
2023/01/09 01:20:01;;;;;;;6.28;2.13;;;;;;;5.46;100.00;99145.31;5014755;28;20033;-66
2023/01/09 01:22:27;;;;;;;6.47;2.47;;;;;;;5.67;100.00;99174.94;5032192;28;20120;-66
2023/01/09 01:24:52;;;;;;;4.78;2.05;;;;;;;5.62;100.00;99184.72;5032028;28;20442;-65
2023/01/09 01:27:17;;;;;;;9.60;2.17;;;;;;;5.65;100.00;99187.22;4998164;28;20037;-66
2023/01/09 01:29:43;;;;;;;5.68;2.08;;;;;;;5.21;100.00;99104.56;5014467;28;20037;-66
2023/01/09 01:32:08;;;;;;;6.60;1.88;;;;;;;5.63;100.00;99162.94;5032200;28;20508;-66
2023/01/09 01:34:33;;;;;;;4.65;1.85;;;;;;;4.95;100.00;99043.84;5032097;28;20040;-66
2023/01/09 01:36:59;;;;;;;7.28;1.95;;;;;;;5.67;100.00;99167.97;5031311;28;20091;-67
2023/01/09 01:39:24;;;;;;;8.73;2.40;;;;;;;5.68;100.00;99168.81;5031878;28;20408;-66
2023/01/09 01:41:50;;;;;;;8.02;2.05;;;;;;;5.53;100.00;99149.41;5014095;28;20042;-66
2023/01/09 01:44:52;;;;;;;7.70;2.08;;;;;;;5.65;100.00;99163.72;5031955;28;20172;-66
2023/01/09 01:47:19;;;;;;;7.07;2.60;;;;;;;5.57;100.00;99155.34;5016240;28;20033;-66
2023/01/09 01:49:44;;;;;;;4.72;1.92;;;;;;;4.86;100.00;99054.59;5014158;28;20044;-67
2023/01/09 01:52:10;;;;;;;10.63;2.42;;;;;;;5.28;100.00;99126.91;5013526;28;20446;-66
2023/01/09 01:54:35;;;;;;;5.97;2.58;;;;;;;5.46;100.00;99160.09;5031314;28;20583;-66
2023/01/09 01:57:02;;;;;;;7.07;2.05;;;;;;;5.35;100.00;99146.63;5013822;28;20108;-66
2023/01/09 01:59:33;;;;;;;7.97;3.08;;;;;;;5.30;100.00;99141.59;5014001;28;20392;-66
2023/01/09 02:02:00;;;;;;;5.85;2.00;;;;;;;4.93;100.00;99086.53;5031437;28;20045;-67
2023/01/09 02:04:26;;;;;;;5.57;2.72;;;;;;;5.30;100.00;99162.47;5013974;28;20120;-66
2023/01/09 02:06:53;;;;;;;8.43;3.13;;;;;;;5.38;100.00;99163.03;4997696;28;20042;-66
2023/01/09 02:09:21;;;;;;;13.48;2.85;;;;;;;5.35;100.00;99163.13;5013721;28;20492;-65
2023/01/09 02:11:51;;;;;;;3.47;2.80;;;;;;;5.35;100.00;99162.28;5014184;28;20045;-65
2023/01/09 02:14:16;;;;;;;9.05;2.92;;;;;;;5.51;100.00;99184.28;5014154;28;20116;-67
2023/01/09 02:16:53;;;;;;;7.40;3.10;;;;;;;5.57;100.00;99187.50;5014100;28;20116;-67
2023/01/09 02:19:35;;;;;;;6.35;2.90;;;;;;;5.56;100.00;99179.75;4999135;28;20029;-66
2023/01/09 02:22:38;;;;;;;9.73;3.10;;;;;;;5.66;100.00;99186.31;5031307;28;20095;-66
2023/01/09 02:25:25;;;;;;;11.32;2.95;;;;;;;5.79;100.00;99184.06;5013620;28;20376;-66
2023/01/09 02:27:59;;;;;;;5.00;3.15;;;;;;;5.87;100.00;99177.66;5031404;28;20477;-65
2023/01/09 02:30:31;;;;;;;5.30;2.92;;;;;;;5.84;100.00;99182.97;5013302;28;20037;-65
2023/01/09 02:32:58;;;;;;;9.80;3.60;;;;;;;5.38;100.00;99123.88;5013591;28;20032;-66
2023/01/09 02:35:43;;;;;;;6.15;2.88;;;;;;;5.65;100.00;99179.38;5013304;28;20072;-66
2023/01/09 02:38:22;;;;;;;7.30;3.00;;;;;;;5.40;100.00;99158.59;5031624;28;20034;-65
2023/01/09 02:40:56;;;;;;;7.47;3.40;;;;;;;5.39;100.00;99166.50;5013817;28;20034;-64
2023/01/09 02:43:22;;;;;;;8.38;3.20;;;;;;;5.03;100.00;99104.34;5013746;28;20026;-65
2023/01/09 02:45:47;;;;;;;9.80;3.30;;;;;;;5.47;100.00;99175.72;5013611;28;20029;-65
2023/01/09 02:48:13;;;;;;;6.50;2.90;;;;;;;5.41;100.00;99175.94;5013471;28;20076;-66
2023/01/09 02:50:49;;;;;;;8.15;3.67;;;;;;;5.32;100.00;99165.84;5013529;28;20515;-65
2023/01/09 02:53:37;;;;;;;6.05;3.20;;;;;;;5.34;100.00;99178.88;4982535;28;20029;-66
2023/01/09 02:56:16;;;;;;;7.28;3.35;;;;;;;5.25;100.00;99171.38;5013625;28;20043;-65
2023/01/09 02:59:16;;;;;;;9.65;3.40;;;;;;;5.33;100.00;99177.16;5013755;28;20034;-65
2023/01/09 03:02:06;;;;;;;6.43;3.88;;;;;;;5.32;100.00;99176.28;5023210;28;20516;-65
2023/01/09 03:04:34;;;;;;;9.63;3.33;;;;;;;5.35;100.00;99176.19;5017003;28;20048;-66
2023/01/09 03:07:02;;;;;;;7.93;4.22;;;;;;;5.25;100.00;99142.69;5016896;28;20036;-66
2023/01/09 03:09:31;;;;;;;6.13;3.13;;;;;;;4.91;100.00;99098.75;5016960;28;20032;-66
2023/01/09 03:12:06;;;;;;;9.40;3.72;;;;;;;5.32;100.00;99172.84;5017385;28;20030;-65
2023/01/09 03:14:32;;;;;;;12.68;3.95;;;;;;;4.81;100.00;99077.41;5017290;28;20033;-66
2023/01/09 03:17:02;;;;;;;6.40;3.45;;;;;;;5.19;100.00;99155.94;5016826;28;20385;-66
2023/01/09 03:19:29;;;;;;;6.55;3.55;;;;;;;5.15;100.00;99129.13;5034497;28;20068;-67
2023/01/09 03:21:55;;;;;;;11.75;3.80;;;;;;;4.71;100.00;99060.38;5016929;28;20034;-66
2023/01/09 03:24:21;;;;;;;11.10;4.00;;;;;;;5.33;100.00;99154.53;5016861;28;20032;-65
2023/01/09 03:26:46;;;;;;;9.73;3.45;;;;;;;5.24;100.00;99133.16;5034298;28;20406;-65
2023/01/09 03:29:12;;;;;;;6.60;3.00;;;;;;;5.39;100.00;99151.69;5034600;28;20034;-66
2023/01/09 03:31:37;;;;;;;9.70;3.40;;;;;;;4.97;100.00;99062.88;5000396;28;20040;-66
2023/01/09 03:34:03;;;;;;;12.18;3.65;;;;;;;5.49;100.00;99146.94;5015931;28;20033;-66
2023/01/09 03:36:28;;;;;;;9.48;3.13;;;;;;;5.48;100.00;99146.13;4995580;28;20029;-66
2023/01/09 03:38:53;;;;;;;9.52;3.00;;;;;;;5.54;100.00;99153.72;5031922;28;20044;-65
2023/01/09 03:41:19;;;;;;;10.82;2.70;;;;;;;5.05;100.00;99062.56;5016540;28;20041;-65
2023/01/09 03:43:46;;;;;;;11.23;3.38;;;;;;;5.17;100.00;99075.13;5016640;28;20029;-65
2023/01/09 03:46:12;;;;;;;9.35;3.08;;;;;;;5.60;100.00;99132.56;5034109;28;20538;-66
2023/01/09 03:48:37;;;;;;;8.30;2.72;;;;;;;5.60;100.00;99136.97;5016740;28;20037;-66
2023/01/09 03:51:02;;;;;;;8.27;2.78;;;;;;;5.75;100.00;99138.94;5016717;28;20467;-67
2023/01/09 03:53:28;;;;;;;13.20;3.10;;;;;;;5.68;100.00;99140.13;5016632;28;20469;-66
2023/01/09 03:55:55;;;;;;;6.43;2.47;;;;;;;5.79;100.00;99156.19;5034598;28;20044;-67
2023/01/09 03:58:21;;;;;;;5.90;2.17;;;;;;;5.02;100.00;99047.88;5016751;28;20052;-67
2023/01/09 04:00:49;;;;;;;6.72;2.53;;;;;;;5.79;100.00;99163.19;5016262;28;20045;-66
2023/01/09 04:03:16;;;;;;;4.70;2.38;;;;;;;5.41;100.00;99096.81;5017000;28;20029;-66
2023/01/09 04:05:43;;;;;;;6.97;2.97;;;;;;;5.35;100.00;99087.47;5034221;28;20040;-66
2023/01/09 04:08:08;;;;;;;8.50;2.55;;;;;;;5.75;100.00;99149.38;5016256;28;20040;-66
2023/01/09 04:10:34;;;;;;;7.93;2.70;;;;;;;5.78;100.00;99159.72;4999323;28;20059;-66
2023/01/09 04:12:59;;;;;;;5.82;2.58;;;;;;;5.66;100.00;99141.94;5016022;28;20034;-66
2023/01/09 04:15:24;;;;;;;11.88;3.00;;;;;;;5.74;100.00;99152.06;5033958;28;20076;-67
2023/01/09 04:17:50;;;;;;;12.25;3.05;;;;;;;5.69;100.00;99154.88;5033948;28;20034;-67
2023/01/09 04:20:16;;;;;;;12.48;3.20;;;;;;;5.38;100.00;99082.13;5013449;28;20127;-65
2023/01/09 04:22:41;;;;;;;5.60;2.75;;;;;;;5.70;100.00;99135.69;5029408;28;20083;-68
2023/01/09 04:25:07;;;;;;;5.00;2.40;;;;;;;5.69;100.00;99140.03;5033213;28;20030;-66
2023/01/09 04:27:32;;;;;;;6.38;2.53;;;;;;;5.62;100.00;99125.53;5015547;28;20056;-66
2023/01/09 04:29:58;;;;;;;5.28;2.45;;;;;;;5.66;100.00;99121.88;5033176;28;20473;-67
2023/01/09 04:32:23;;;;;;;6.10;2.60;;;;;;;5.38;100.00;99073.47;5015489;28;20037;-66
2023/01/09 04:34:48;;;;;;;6.97;2.10;;;;;;;5.71;100.00;99134.78;5015678;28;20204;-67
2023/01/09 04:37:14;;;;;;;7.93;3.00;;;;;;;5.64;100.00;99125.47;5015474;28;20461;-66
2023/01/09 04:39:42;;;;;;;12.43;2.85;;;;;;;5.61;100.00;99120.38;5033140;28;20404;-65
2023/01/09 04:42:08;;;;;;;7.63;3.17;;;;;;;5.70;100.00;99133.06;5015203;28;20041;-65
2023/01/09 04:44:33;;;;;;;7.88;2.78;;;;;;;5.65;100.00;99114.13;5015311;28;20045;-66
2023/01/09 04:46:58;;;;;;;9.00;3.25;;;;;;;5.74;100.00;99126.81;5015417;28;20028;-65
2023/01/09 04:49:24;;;;;;;11.75;2.85;;;;;;;5.61;100.00;99102.97;5032904;28;20030;-66
2023/01/09 04:51:50;;;;;;;7.57;2.50;;;;;;;5.58;100.00;99097.84;5015094;28;20072;-65
2023/01/09 04:54:16;;;;;;;7.82;2.47;;;;;;;5.40;100.00;99061.22;5033258;28;20346;-65
2023/01/09 04:56:42;;;;;;;8.70;2.33;;;;;;;5.64;100.00;99100.22;5033028;28;20032;-66
2023/01/09 04:59:08;;;;;;;8.38;2.65;;;;;;;5.40;100.00;99051.59;5032651;28;20037;-68
2023/01/09 05:01:33;;;;;;;8.02;2.30;;;;;;;5.80;100.00;99130.94;5031950;28;20507;-67
2023/01/09 05:03:59;;;;;;;8.93;2.58;;;;;;;5.82;100.00;99101.25;5013852;28;20520;-67
2023/01/09 05:06:25;;;;;;;8.88;2.55;;;;;;;5.90;100.00;99116.63;4997668;28;20036;-67
2023/01/09 05:08:50;;;;;;;9.82;3.20;;;;;;;5.46;100.00;99048.75;5015223;28;20037;-65
2023/01/09 05:11:16;;;;;;;9.20;3.13;;;;;;;5.84;100.00;99104.63;5014980;28;20431;-67
2023/01/09 05:13:41;;;;;;;7.65;3.53;;;;;;;5.36;100.00;99026.56;5014899;28;20483;-67
2023/01/09 05:16:07;;;;;;;9.93;3.20;;;;;;;5.74;100.00;99098.09;5014814;28;20033;-66
2023/01/09 05:18:32;;;;;;;8.00;3.92;;;;;;;5.81;100.00;99111.78;4998274;28;20063;-65
2023/01/09 05:20:58;;;;;;;11.20;3.75;;;;;;;5.28;100.00;99017.34;5032241;28;20041;-65
2023/01/09 05:23:23;;;;;;;11.90;4.25;;;;;;;5.79;100.00;99100.50;5031877;28;20038;-65
2023/01/09 05:25:48;;;;;;;12.75;4.53;;;;;;;5.75;100.00;99096.34;5032403;28;20100;-66
2023/01/09 05:28:14;;;;;;;9.15;4.43;;;;;;;5.29;100.00;99024.25;5014471;28;20500;-67
2023/01/09 05:30:39;;;;;;;11.02;4.57;;;;;;;5.65;100.00;99091.50;5032146;28;20037;-66
2023/01/09 05:33:04;;;;;;;13.23;5.65;;;;;;;5.65;100.00;99085.41;4998248;28;20037;-65
2023/01/09 05:35:30;;;;;;;9.23;4.97;;;;;;;5.69;100.00;99095.66;5014353;28;20033;-66
2023/01/09 05:37:55;;;;;;;14.63;5.85;;;;;;;5.69;100.00;99113.09;4997714;28;20433;-65
2023/01/09 05:40:21;;;;;;;11.90;6.03;;;;;;;5.69;100.00;99107.88;5014417;28;20037;-66
2023/01/09 05:42:46;;;;;;;17.88;6.57;;;;;;;5.66;100.00;99100.19;5032156;28;20059;-65
2023/01/09 05:45:12;;;;;;;11.43;5.88;;;;;;;5.62;100.00;99090.75;5014196;28;20476;-65
2023/01/09 05:47:37;;;;;;;15.20;6.07;;;;;;;5.72;100.00;99093.84;5031832;28;20408;-64
2023/01/09 05:50:03;;;;;;;11.98;5.53;;;;;;;5.69;100.00;99085.22;5014348;28;20046;-66
2023/01/09 05:52:28;;;;;;;10.55;5.25;;;;;;;5.57;100.00;99069.22;5014318;28;20037;-67
2023/01/09 05:54:54;;;;;;;10.50;5.40;;;;;;;5.28;100.00;99013.00;5031644;28;20048;-67
2023/01/09 05:57:19;;;;;;;9.32;4.95;;;;;;;5.36;100.00;99026.56;5031680;28;20034;-66
2023/01/09 05:59:44;;;;;;;7.93;4.47;;;;;;;5.73;100.00;99075.50;5014010;28;20068;-67
2023/01/09 06:02:10;;;;;;;8.20;4.47;;;;;;;4.72;100.00;98897.03;5031235;28;20041;-67
2023/01/09 06:04:35;;;;;;;7.30;4.07;;;;;;;5.78;100.00;99073.56;5031519;28;20044;-65
2023/01/09 06:07:01;;;;;;;13.80;4.70;;;;;;;5.66;100.00;99042.75;5031969;28;20381;-65
2023/01/09 06:09:26;;;;;;;13.68;4.53;;;;;;;5.76;100.00;99064.09;5031652;28;20033;-62
2023/01/09 06:11:53;;;;;;;10.20;4.22;;;;;;;5.67;100.00;99032.25;5031700;28;20467;-64
2023/01/09 06:14:19;;;;;;;16.55;4.80;;;;;;;5.51;100.00;98993.78;5031434;28;20030;-63
2023/01/09 06:16:44;;;;;;;11.10;4.15;;;;;;;5.54;100.00;98980.63;5013785;28;20503;-64
2023/01/09 06:19:09;;;;;;;10.88;4.05;;;;;;;5.57;100.00;98994.34;5031313;28;20025;-66
2023/01/09 06:21:35;;;;;;;8.88;3.88;;;;;;;5.82;100.00;99040.34;5013682;28;20107;-64
2023/01/09 06:24:00;;;;;;;10.75;4.10;;;;;;;5.47;100.00;98980.00;5013759;28;20041;-66
2023/01/09 06:26:26;;;;;;;10.73;3.47;;;;;;;5.99;100.00;99083.16;4997632;28;20033;-64
2023/01/09 06:28:54;;;;;;;14.27;4.80;;;;;;;5.47;100.00;98979.16;4997289;28;20080;-64
2023/01/09 06:31:20;;;;;;;10.02;3.97;;;;;;;5.99;100.00;99070.09;5013982;28;20041;-65
2023/01/09 06:33:45;;;;;;;9.73;4.10;;;;;;;5.95;100.00;99063.31;5032095;28;20057;-66
2023/01/09 06:36:11;;;;;;;9.75;4.03;;;;;;;5.75;100.00;99018.84;5014266;28;20061;-65
2023/01/09 06:38:36;;;;;;;10.20;3.97;;;;;;;5.97;100.00;99060.63;5022594;28;20057;-65
2023/01/09 06:41:01;;;;;;;9.88;4.38;;;;;;;5.51;100.00;98981.59;5017573;28;20244;-64
2023/01/09 06:43:27;;;;;;;9.60;4.40;;;;;;;5.96;100.00;99053.69;5017239;28;20124;-66
2023/01/09 06:45:52;;;;;;;15.55;5.30;;;;;;;5.53;100.00;98978.91;5035297;28;20042;-67
2023/01/09 06:48:18;;;;;;;12.45;4.47;;;;;;;6.10;100.00;99078.31;5035370;28;20034;-65
2023/01/09 06:50:44;;;;;;;7.95;4.30;;;;;;;5.58;100.00;98996.06;5034748;28;20037;-64
2023/01/09 06:53:10;;;;;;;12.63;4.50;;;;;;;5.73;100.00;99015.47;5035316;28;20030;-64
2023/01/09 06:55:35;;;;;;;12.70;4.75;;;;;;;5.86;100.00;99039.34;5035122;28;20446;-65
2023/01/09 06:58:00;;;;;;;12.43;4.60;;;;;;;5.71;100.00;99016.44;5034900;28;20527;-63
2023/01/09 07:00:26;;;;;;;6.70;3.88;;;;;;;5.97;100.00;99047.56;5013361;28;20057;-66
2023/01/09 07:02:51;;;;;;;7.53;3.22;;;;;;;5.95;100.00;99046.81;5015192;28;20085;-65
2023/01/09 07:05:16;;;;;;;7.55;2.97;;;;;;;6.25;100.00;99091.69;5014758;28;20041;-63
2023/01/09 07:07:42;;;;;;;5.60;2.65;;;;;;;6.29;100.00;99106.28;5013868;28;20064;-64
2023/01/09 07:10:08;;;;;;;7.47;2.30;;;;;;;5.92;100.00;99039.09;5014924;28;20056;-64
2023/01/09 07:12:34;;;;;;;6.97;2.05;;;;;;;6.18;100.00;99086.72;5014930;28;20046;-64
2023/01/09 07:14:59;;;;;;;19.45;2.63;;;;;;;5.89;100.00;99041.84;5014181;28;20049;-63
2023/01/09 07:17:25;;;;;;;9.60;1.63;;;;;;;6.37;100.00;99120.72;5014818;28;20034;-63
2023/01/09 07:19:50;;;;;;;9.93;1.25;;;;;;;6.09;100.00;99070.56;5014708;28;20092;-64
2023/01/09 07:22:16;;;;;;;5.68;1.13;;;;;;;6.31;100.00;99114.91;5014223;28;20037;-65
2023/01/09 07:24:43;;;;;;;7.03;2.00;;;;;;;6.45;100.00;99141.34;5014361;28;20034;-66
2023/01/09 07:27:08;;;;;;;8.63;1.17;;;;;;;6.47;100.00;99147.34;5014612;28;20045;-65
2023/01/09 07:29:34;;;;;;;2.88;1.05;;;;;;;6.47;100.00;99157.78;5013399;28;20149;-64
2023/01/09 07:31:59;;;;;;;7.32;1.52;;;;;;;6.53;100.00;99158.38;5014188;28;20564;-64
2023/01/09 07:34:24;;;;;;;9.27;1.05;;;;;;;6.06;100.00;99102.91;5013250;28;20034;-63
2023/01/09 07:36:50;;;;;;;4.95;1.23;;;;;;;6.51;100.00;99172.44;5014581;28;20038;-67
2023/01/09 07:39:15;;;;;;;6.97;1.10;;;;;;;6.38;100.00;99156.41;5013831;28;20041;-65
2023/01/09 07:41:41;;;;;;;8.55;1.15;;;;;;;6.47;100.00;99176.09;5014054;28;20038;-64
2023/01/09 07:44:06;;;;;;;6.47;1.40;;;;;;;6.47;100.00;99179.56;5014399;28;20147;-66
2023/01/09 07:46:32;;;;;;;10.98;1.55;;;;;;;5.67;100.00;99053.13;5013628;28;20488;-65
2023/01/09 07:48:57;;;;;;;7.10;1.23;;;;;;;6.11;100.00;99129.66;4996420;28;20505;-65
2023/01/09 07:51:23;;;;;;;4.35;0.98;;;;;;;6.15;100.00;99127.78;5014429;28;20461;-65
2023/01/09 07:53:48;;;;;;;5.70;1.27;;;;;;;6.49;100.00;99206.47;5014051;28;20420;-66
2023/01/09 07:56:13;;;;;;;4.65;1.00;;;;;;;6.16;100.00;99156.44;5013673;28;20492;-64
2023/01/09 07:58:39;;;;;;;4.30;0.85;;;;;;;6.14;100.00;99167.88;5012894;28;20037;-64
2023/01/09 08:01:05;;;;;;;4.32;0.80;;;;;;;6.51;100.00;99232.56;5024825;28;20081;-64
2023/01/09 08:03:32;;;;;;;8.07;1.20;;;;;;;6.65;100.00;99256.34;5033825;28;20444;-64
2023/01/09 08:05:57;;;;;;;5.72;1.05;;;;;;;5.89;100.00;99122.78;5016097;28;20124;-63
2023/01/09 08:08:23;;;;;;;8.98;1.20;;;;;;;6.70;100.00;99273.56;5033102;28;20128;-65
2023/01/09 08:10:48;;;;;;;7.72;1.88;;;;;;;6.45;100.00;99224.97;5033285;28;20079;-62
2023/01/09 08:13:14;;;;;;;10.60;1.88;;;;;;;6.26;100.00;99185.66;5033174;28;20029;-65
2023/01/09 08:15:39;;;;;;;8.23;2.05;;;;;;;6.87;100.00;99290.28;5015331;28;20064;-64
2023/01/09 08:18:04;;;;;;;4.00;1.10;;;;;;;6.87;100.00;99291.16;5033178;28;20033;-64
2023/01/09 08:20:30;;;;;;;4.28;1.25;;;;;;;6.75;100.00;99282.06;5031034;28;20034;-65
2023/01/09 08:22:56;;;;;;;9.80;1.40;;;;;;;6.92;100.00;99309.28;5032076;28;20468;-67
2023/01/09 08:25:22;;;;;;;5.40;1.70;;;;;;;6.89;100.00;99301.56;5015074;28;20120;-65
2023/01/09 08:27:47;;;;;;;13.57;2.25;;;;;;;6.98;100.00;99311.63;5032750;28;20030;-62
2023/01/09 08:30:13;;;;;;;8.65;1.90;;;;;;;6.86;100.00;99301.69;5030877;28;20485;-65
2023/01/09 08:32:40;;;;;;;10.57;2.50;;;;;;;6.99;100.00;99332.50;5014837;28;20045;-64
2023/01/09 08:35:06;;;;;;;15.90;2.28;;;;;;;7.04;100.00;99324.44;5032959;28;20100;-66
2023/01/09 08:37:31;;;;;;;15.60;3.15;;;;;;;6.93;100.00;99319.66;5032413;28;20048;-65
2023/01/09 08:39:56;;;;;;;18.00;2.95;;;;;;;6.97;100.00;99329.09;5033560;28;20388;-66
2023/01/09 08:47:50;;;;;;;14.40;2.75;;;;;;;7.13;100.00;99356.31;5033080;28;20052;-65
2023/01/09 08:50:15;;;;;;;25.23;3.58;;;;;;;6.80;100.00;99297.53;5032711;28;20033;-67
2023/01/09 08:52:41;;;;;;;12.48;2.53;;;;;;;7.22;100.00;99374.25;4999064;28;20038;-66
2023/01/09 08:55:06;;;;;;;13.50;3.30;;;;;;;6.86;100.00;99310.34;5032675;28;20048;-65
2023/01/09 08:57:32;;;;;;;18.38;3.20;;;;;;;7.27;100.00;99387.13;5032582;28;20041;-66
2023/01/09 08:59:57;;;;;;;14.00;2.97;;;;;;;7.37;100.00;99393.69;4998283;28;20033;-65
2023/01/09 09:02:23;;;;;;;11.48;3.00;;;;;;;7.29;100.00;99398.41;5032753;28;20452;-65
2023/01/09 09:04:51;;;;;;;14.25;2.90;;;;;;;7.31;100.00;99407.88;5032762;28;20057;-65
2023/01/09 09:07:25;;;;;;;11.35;2.28;;;;;;;7.30;100.00;99408.78;5014835;28;20042;-66
2023/01/09 09:09:52;;;;;;;15.77;3.25;;;;;;;7.36;100.00;99418.16;5032722;28;20453;-65
2023/01/09 09:12:17;;;;;;;12.18;3.42;;;;;;;6.98;100.00;99356.94;5014787;28;20045;-67
2023/01/09 09:17:27;;;;;;;11.63;2.90;;;;;;;7.39;100.00;99404.94;5017364;28;20677;-65
2023/01/09 09:19:53;;;;;;;10.20;2.58;;;;;;;7.59;100.00;99438.97;5032104;28;20037;-66
2023/01/09 09:22:18;;;;;;;12.20;2.70;;;;;;;7.33;100.00;99392.09;5032260;28;20124;-65
2023/01/09 09:24:44;;;;;;;21.27;3.70;;;;;;;7.34;100.00;99376.34;5032355;28;20340;-66
2023/01/09 09:27:09;;;;;;;9.38;3.17;;;;;;;7.52;100.00;99403.53;5031599;28;20437;-67
2023/01/09 09:29:34;;;;;;;13.82;2.42;;;;;;;7.79;100.00;99461.72;5014007;28;20547;-64
2023/01/09 09:32:00;;;;;;;15.02;2.70;;;;;;;7.57;100.00;99426.88;4995973;28;20120;-66
2023/01/09 09:34:25;;;;;;;7.38;2.10;;;;;;;7.71;100.00;99475.13;5013559;28;20064;-66
2023/01/09 09:36:50;;;;;;;6.35;2.15;;;;;;;7.36;100.00;99413.78;5030687;28;20037;-64
2023/01/09 09:39:16;;;;;;;5.95;1.65;;;;;;;7.73;100.00;99486.41;4997204;28;20043;-66
2023/01/09 09:44:53;;;;;;;12.82;3.05;;;;;;;7.56;100.00;99482.81;5020122;28;20048;-66
2023/01/09 09:47:40;;;;;;;14.32;2.75;;;;;;;7.15;100.00;99443.44;5031812;28;20024;-66
2023/01/09 09:50:18;;;;;;;19.23;2.38;;;;;;;7.19;100.00;99441.56;5031978;28;20053;-68
2023/01/09 09:53:02;;;;;;;11.00;2.35;;;;;;;7.59;100.00;99511.47;5031529;28;20029;-68
2023/01/09 09:55:31;;;;;;;10.98;2.50;;;;;;;7.63;100.00;99510.41;5031058;28;20513;-66
2023/01/09 09:58:00;;;;;;;9.38;2.92;;;;;;;7.74;100.00;99516.06;5013759;28;20040;-66
2023/01/09 10:00:26;;;;;;;12.57;2.35;;;;;;;7.90;100.00;99517.13;5013888;28;20485;-68
2023/01/09 10:02:53;;;;;;;10.32;2.25;;;;;;;7.70;100.00;99459.50;5014139;28;20120;-66
2023/01/09 10:05:18;;;;;;;9.80;3.38;;;;;;;8.26;100.00;99536.50;5031569;28;20037;-66
2023/01/09 10:07:47;;;;;;;16.13;3.70;;;;;;;7.88;100.00;99462.16;5031196;28;20056;-67
2023/01/09 10:10:26;;;;;;;11.50;2.90;;;;;;;7.93;100.00;99470.69;4994263;28;20030;-68
2023/01/09 10:12:54;;;;;;;6.65;2.47;;;;;;;8.25;100.00;99542.69;5013761;28;20038;-66
2023/01/09 10:15:30;;;;;;;12.60;2.58;;;;;;;8.32;100.00;99567.72;5013922;28;20104;-68
2023/01/09 10:18:16;;;;;;;13.68;2.95;;;;;;;8.27;100.00;99574.94;5031242;28;20436;-66
2023/01/09 10:21:08;;;;;;;9.43;2.63;;;;;;;7.94;100.00;99522.16;5031356;28;20124;-67
2023/01/09 10:23:39;;;;;;;;;;;;;;;8.26;100.00;99588.09;5032078;28;20037;-66
2023/01/09 10:26:27;;;;;;;12.60;2.58;;;;;;;8.22;100.00;99570.78;5031576;28;20023;-68
2023/01/09 10:29:31;;;;;;;9.23;2.35;;;;;;;7.98;100.00;99537.75;5031426;28;20033;-68
2023/01/09 10:32:12;;;;;;;11.02;2.25;;;;;;;8.42;100.00;99604.91;4993097;28;20045;-67
2023/01/09 10:34:45;;;;;;;10.43;2.70;;;;;;;8.08;100.00;99532.09;5013215;28;20092;-69
2023/01/09 10:37:52;;;;;;;14.25;2.67;;;;;;;8.46;100.00;99606.50;5031298;28;20037;-67
2023/01/09 10:40:38;;;;;;;17.23;3.30;;;;;;;8.08;100.00;99554.81;5016118;28;20038;-66
2023/01/09 10:43:27;;;;;;;11.30;2.58;;;;;;;8.43;100.00;99615.31;4997354;28;20048;-68
2023/01/09 10:45:55;;;;;;;15.23;3.15;;;;;;;8.37;100.00;99623.47;5013553;28;20029;-64
2023/01/09 10:48:36;;;;;;;16.33;3.13;;;;;;;8.52;100.00;99628.97;5013822;28;20162;-65
2023/01/09 10:51:14;;;;;;;12.88;2.03;;;;;;;8.39;100.00;99571.81;5013503;28;20503;-64
2023/01/09 10:53:42;;;;;;;7.28;2.25;;;;;;;8.77;100.00;99619.97;5012965;28;20072;-63
2023/01/09 10:56:26;;;;;;;14.60;2.80;;;;;;;8.94;100.00;99635.81;4992365;28;20034;-65
2023/01/09 10:58:53;;;;;;;9.80;2.50;;;;;;;8.84;100.00;99613.50;5030459;28;20563;-65
2023/01/09 11:01:31;;;;;;;16.33;3.45;;;;;;;8.99;100.00;99644.31;4996639;28;20057;-66
2023/01/09 11:04:01;;;;;;;16.17;3.03;;;;;;;9.08;100.00;99664.03;5013467;28;20353;-63
2023/01/09 11:06:40;;;;;;;11.02;2.53;;;;;;;8.68;100.00;99590.66;5014007;28;20061;-63
2023/01/09 11:09:06;;;;;;;16.48;2.47;;;;;;;8.79;100.00;99623.34;4998546;28;20018;-63
2023/01/09 11:11:37;;;;;;;12.13;2.80;;;;;;;8.91;100.00;99659.56;5031054;28;20042;-65
2023/01/09 11:14:04;;;;;;;12.80;2.63;;;;;;;8.66;100.00;99603.00;5013218;28;20029;-65
2023/01/09 11:16:30;;;;;;;10.90;3.22;;;;;;;8.97;100.00;99685.53;5027396;28;20025;-62
2023/01/09 11:18:57;;;;;;;11.85;3.03;;;;;;;8.89;100.00;99671.91;5013232;28;20030;-68
2023/01/09 11:21:40;;;;;;;11.38;3.13;;;;;;;8.94;100.00;99680.41;5015649;28;20324;-64
2023/01/09 11:24:17;;;;;;;15.85;2.70;;;;;;;9.00;100.00;99688.03;5034503;28;20033;-64
2023/01/09 11:26:44;;;;;;;11.60;2.90;;;;;;;8.99;100.00;99677.56;5034185;28;20516;-62
2023/01/09 11:29:12;;;;;;;13.68;2.95;;;;;;;8.66;100.00;99618.72;5000178;28;20045;-65
2023/01/09 11:31:41;;;;;;;9.82;2.58;;;;;;;8.76;100.00;99641.84;5016581;28;20028;-67
2023/01/09 11:34:28;;;;;;;12.43;2.35;;;;;;;8.64;100.00;99628.44;5000251;28;20044;-66
2023/01/09 11:37:02;;;;;;;17.38;2.95;;;;;;;9.02;100.00;99698.44;5034076;28;20364;-62
2023/01/09 11:39:30;;;;;;;11.90;2.13;;;;;;;8.63;100.00;99631.97;5034157;28;20108;-67
2023/01/09 11:42:08;;;;;;;13.38;2.80;;;;;;;9.12;100.00;99712.03;5016103;28;20381;-64
2023/01/09 11:44:33;;;;;;;11.68;2.42;;;;;;;8.55;100.00;99629.69;5034070;28;20029;-67
2023/01/09 11:46:59;;;;;;;13.20;2.45;;;;;;;8.96;100.00;99719.72;5016087;28;20370;-64
2023/01/09 11:49:29;;;;;;;17.27;2.55;;;;;;;8.86;100.00;99710.53;5034317;28;20030;-61